createdAt,value
2018-06-24T00:01:58.600Z,4.57
2018-06-24T00:05:01.675Z,3.37
2018-06-24T00:08:03.795Z,3.33
2018-06-24T00:11:06.088Z,3.33
2018-06-24T00:14:08.195Z,3.33
2018-06-24T00:17:10.227Z,3.77
2018-06-24T00:20:12.312Z,3.60
2018-06-24T00:23:14.367Z,3.70
2018-06-24T00:26:16.353Z,3.40
2018-06-24T00:29:18.417Z,2.70
2018-06-24T00:32:20.746Z,3.40
2018-06-24T00:35:22.847Z,3.23
2018-06-24T00:38:24.916Z,3.40
2018-06-24T00:41:27.095Z,3.70
2018-06-24T00:44:29.128Z,3.80
2018-06-24T00:47:31.264Z,3.73
2018-06-24T00:50:33.362Z,3.60
2018-06-24T00:53:35.312Z,3.60
2018-06-24T00:56:37.435Z,3.70
2018-06-24T00:59:51.138Z,3.47
2018-06-24T01:02:53.279Z,3.47
2018-06-24T01:05:55.341Z,3.67
2018-06-24T01:08:57.387Z,3.43
2018-06-24T01:11:59.492Z,3.33
2018-06-24T01:15:02.695Z,3.27
2018-06-24T01:18:04.832Z,3.80
2018-06-24T01:21:06.952Z,3.50
2018-06-24T01:24:09.095Z,3.40
2018-06-24T01:27:11.155Z,4.10
2018-06-24T01:30:13.204Z,3.93
2018-06-24T01:33:16.311Z,4.07
2018-06-24T01:36:18.373Z,3.77
2018-06-24T01:39:20.416Z,3.60
2018-06-24T01:42:22.599Z,3.80
2018-06-24T01:45:24.680Z,4.60
2018-06-24T01:48:26.814Z,4.20
2018-06-24T01:51:29.071Z,4.43
2018-06-24T01:54:32.219Z,6.83
2018-06-24T01:57:34.271Z,6.17
2018-06-24T02:00:36.323Z,6.77
2018-06-24T02:03:38.423Z,6.13
2018-06-24T02:06:40.506Z,6.40
2018-06-24T02:09:42.581Z,6.03
2018-06-24T02:12:44.630Z,6.63
2018-06-24T02:15:46.694Z,6.27
2018-06-24T02:18:49.820Z,6.00
2018-06-24T02:21:51.912Z,5.87
2018-06-24T02:24:53.864Z,6.23
2018-06-24T02:27:55.909Z,5.80
2018-06-24T02:30:57.987Z,5.77
2018-06-24T02:34:00.118Z,5.70
2018-06-24T02:37:03.369Z,5.20
2018-06-24T02:40:05.528Z,5.10
2018-06-24T02:43:07.583Z,5.03
2018-06-24T02:46:09.715Z,4.40
2018-06-24T02:49:11.829Z,4.20
2018-06-24T02:52:13.843Z,4.70
2018-06-24T02:55:15.759Z,4.30
2018-06-24T02:58:17.803Z,4.40
2018-06-24T03:01:19.897Z,4.67
2018-06-24T03:04:22.051Z,4.37
2018-06-24T03:07:24.127Z,4.50
2018-06-24T03:10:26.164Z,4.30
2018-06-24T03:13:28.276Z,4.03
2018-06-24T03:16:30.340Z,4.57
2018-06-24T03:19:33.110Z,4.20
2018-06-24T03:22:35.079Z,4.70
2018-06-24T03:25:37.169Z,4.73
2018-06-24T03:28:39.196Z,4.63
2018-06-24T03:31:48.879Z,5.10
2018-06-24T03:34:50.965Z,4.70
2018-06-24T03:37:52.995Z,4.60
2018-06-24T03:40:55.100Z,4.20
2018-06-24T03:43:57.152Z,4.60
2018-06-24T03:46:59.236Z,4.60
2018-06-24T03:50:01.295Z,4.40
2018-06-24T03:53:04.008Z,4.80
2018-06-24T03:56:06.070Z,4.37
2018-06-24T03:59:12.099Z,3.90
2018-06-24T04:02:14.332Z,3.80
2018-06-24T04:05:16.252Z,4.27
2018-06-24T04:08:18.337Z,3.80
2018-06-24T04:11:20.481Z,4.20
2018-06-24T04:14:22.543Z,4.00
2018-06-24T04:17:24.699Z,4.47
2018-06-24T04:20:26.775Z,4.53
2018-06-24T04:23:28.843Z,4.23
2018-06-24T04:26:30.810Z,4.20
2018-06-24T04:29:33.563Z,4.50
2018-06-24T04:32:35.708Z,4.40
2018-06-24T04:35:37.630Z,4.10
2018-06-24T04:38:39.711Z,4.40
2018-06-24T04:41:41.776Z,4.23
2018-06-24T04:44:43.865Z,4.60
2018-06-24T04:47:45.911Z,4.60
2018-06-24T04:50:48.171Z,4.33
2018-06-24T04:53:50.135Z,4.40
2018-06-24T04:56:52.257Z,4.20
2018-06-24T04:59:54.275Z,3.70
2018-06-24T05:02:56.377Z,4.47
2018-06-24T05:05:59.459Z,4.47
2018-06-24T05:09:02.765Z,4.30
2018-06-24T05:12:04.843Z,4.43
2018-06-24T05:15:06.807Z,4.50
2018-06-24T05:18:08.847Z,4.20
2018-06-24T05:21:10.948Z,4.70
2018-06-24T05:24:13.304Z,4.20
2018-06-24T05:27:15.395Z,4.20
2018-06-24T05:30:17.831Z,4.27
2018-06-24T05:33:19.526Z,4.50
2018-06-24T05:36:22.700Z,4.40
2018-06-24T05:39:24.872Z,4.03
2018-06-24T05:42:26.927Z,5.07
2018-06-24T05:45:29.035Z,4.57
2018-06-24T05:48:31.543Z,4.50
2018-06-24T05:51:34.787Z,4.80
2018-06-24T05:54:36.781Z,4.50
2018-06-24T05:57:38.802Z,4.90
2018-06-24T06:00:40.943Z,4.47
2018-06-24T06:03:43.078Z,4.60
2018-06-24T06:06:45.216Z,4.70
2018-06-24T06:09:47.333Z,4.17
2018-06-24T06:12:49.501Z,5.10
2018-06-24T06:15:51.629Z,4.50
2018-06-24T06:18:53.716Z,5.00
2018-06-24T06:21:55.789Z,4.13
2018-06-24T06:24:57.739Z,4.67
2018-06-24T06:27:59.703Z,5.30
2018-06-24T06:31:01.707Z,5.00
2018-06-24T06:34:04.890Z,5.13
2018-06-24T06:37:06.995Z,4.80
2018-06-24T06:40:09.245Z,5.23
2018-06-24T06:43:11.292Z,5.00
2018-06-24T06:46:13.727Z,5.77
2018-06-24T06:49:15.871Z,5.20
2018-06-24T06:52:19.442Z,4.90
2018-06-24T06:55:21.356Z,5.00
2018-06-24T06:58:23.778Z,5.37
2018-06-24T07:01:25.919Z,5.00
2018-06-24T07:04:28.451Z,5.13
2018-06-24T07:07:30.844Z,4.47
2018-06-24T07:10:35.543Z,5.13
2018-06-24T07:13:37.951Z,4.77
2018-06-24T07:16:40.011Z,4.90
2018-06-24T07:19:42.543Z,4.60
2018-06-24T07:22:44.977Z,4.90
2018-06-24T07:25:47.012Z,4.57
2018-06-24T07:28:49.576Z,5.23
2018-06-24T07:31:52.109Z,4.80
2018-06-24T07:34:54.053Z,4.20
2018-06-24T07:37:56.088Z,4.13
2018-06-24T07:40:58.105Z,4.03
2018-06-24T07:44:00.147Z,4.60
2018-06-24T07:47:03.668Z,4.17
2018-06-24T07:50:05.758Z,4.73
2018-06-24T07:53:09.148Z,4.07
2018-06-24T07:56:11.712Z,4.20
2018-06-24T07:59:13.776Z,3.97
2018-06-24T08:02:16.265Z,3.40
2018-06-24T08:05:18.969Z,3.30
2018-06-24T08:08:21.359Z,3.50
2018-06-24T08:11:23.876Z,3.70
2018-06-24T08:14:27.010Z,3.63
2018-06-24T08:17:29.348Z,3.80
2018-06-24T08:20:31.851Z,3.30
2018-06-24T08:23:35.314Z,3.40
2018-06-24T08:26:37.402Z,3.70
2018-06-24T08:29:39.487Z,3.13
2018-06-24T08:32:41.993Z,3.40
2018-06-24T08:35:44.443Z,3.70
2018-06-24T08:38:46.487Z,3.30
2018-06-24T08:41:49.068Z,3.53
2018-06-24T08:44:51.384Z,3.40
2018-06-24T08:47:54.124Z,3.23
2018-06-24T08:50:56.696Z,3.00
2018-06-24T08:53:59.115Z,3.23
2018-06-24T08:57:01.151Z,3.20
2018-06-24T09:00:04.243Z,3.63
2018-06-24T09:03:06.645Z,3.17
2018-06-24T09:06:09.308Z,3.40
2018-06-24T09:09:11.711Z,3.10
2018-06-24T09:12:14.547Z,3.33
2018-06-24T09:15:16.764Z,3.70
2018-06-24T09:18:19.275Z,3.90
2018-06-24T09:21:21.739Z,3.27
2018-06-24T09:24:24.297Z,3.60
2018-06-24T09:27:26.683Z,3.40
2018-06-24T09:30:28.863Z,3.50
2018-06-24T09:33:31.410Z,3.57
2018-06-24T09:36:35.361Z,2.90
2018-06-24T09:39:37.428Z,2.40
2018-06-24T09:42:40.000Z,3.13
2018-06-24T09:45:42.498Z,3.00
2018-06-24T09:48:46.020Z,2.90
2018-06-24T09:51:47.985Z,2.53
2018-06-24T09:54:56.553Z,2.40
2018-06-24T09:57:59.067Z,2.60
2018-06-24T10:01:01.633Z,2.90
2018-06-24T10:04:06.067Z,3.40
2018-06-24T10:07:10.607Z,3.60
2018-06-24T10:10:12.641Z,3.43
2018-06-24T10:13:14.710Z,3.00
2018-06-24T10:16:17.242Z,3.03
2018-06-24T10:19:20.189Z,3.67
2018-06-24T10:22:22.727Z,3.70
2018-06-24T10:25:25.170Z,4.00
2018-06-24T10:28:27.211Z,4.40
2018-06-24T10:31:29.285Z,3.13
2018-06-24T10:34:31.798Z,3.70
2018-06-24T10:37:35.178Z,3.37
2018-06-24T10:40:37.407Z,3.83
2018-06-24T10:43:39.879Z,3.53
2018-06-24T10:46:42.489Z,3.70
2018-06-24T10:49:44.886Z,3.40
2018-06-24T10:52:47.332Z,3.40
2018-06-24T10:55:49.404Z,2.90
2018-06-24T10:58:52.400Z,3.07
2018-06-24T11:01:54.583Z,3.57
2018-06-24T11:04:57.315Z,3.37
2018-06-24T11:07:59.419Z,3.53
2018-06-24T11:11:01.548Z,3.70
2018-06-24T11:14:03.761Z,4.03
2018-06-24T11:17:05.931Z,3.63
2018-06-24T11:20:08.111Z,4.23
2018-06-24T11:23:10.173Z,4.07
2018-06-24T11:26:12.111Z,4.40
2018-06-24T11:29:14.665Z,5.07
2018-06-24T11:32:17.178Z,4.47
2018-06-24T11:35:20.253Z,4.30
2018-06-24T11:38:22.450Z,3.77
2018-06-24T11:41:24.603Z,3.93
2018-06-24T11:44:26.712Z,3.73
2018-06-24T11:47:28.981Z,3.93
2018-06-24T11:50:31.100Z,3.67
2018-06-24T11:53:33.745Z,3.67
2018-06-24T11:56:36.394Z,3.70
2018-06-24T11:59:38.735Z,4.03
2018-06-24T12:02:41.336Z,3.87
2018-06-24T12:05:43.888Z,3.30
2018-06-24T12:08:46.415Z,3.90
2018-06-24T12:11:48.825Z,4.70
2018-06-24T12:14:51.489Z,3.83
2018-06-24T12:17:54.044Z,3.90
2018-06-24T12:20:56.439Z,3.23
2018-06-24T12:23:58.569Z,3.87
2018-06-24T12:27:00.689Z,4.03
2018-06-24T12:30:02.911Z,3.90
2018-06-24T12:33:05.273Z,4.20
2018-06-24T12:36:07.387Z,4.30
2018-06-24T12:39:13.036Z,4.10
2018-06-24T12:42:15.576Z,4.17
2018-06-24T12:45:17.979Z,4.73
2018-06-24T12:48:20.063Z,4.27
2018-06-24T12:51:22.102Z,4.40
2018-06-24T12:54:26.139Z,4.47
2018-06-24T12:57:28.172Z,4.60
2018-06-24T13:00:30.891Z,4.30
2018-06-24T13:03:32.331Z,4.97
2018-06-24T13:06:34.420Z,5.07
2018-06-24T13:09:36.522Z,4.80
2018-06-24T13:12:38.535Z,4.93
2018-06-24T13:15:40.624Z,5.60
2018-06-24T13:18:42.713Z,5.50
2018-06-24T13:21:44.768Z,5.10
2018-06-24T13:24:46.867Z,4.47
2018-06-24T13:27:48.926Z,4.57
2018-06-24T13:30:51.122Z,4.60
2018-06-24T13:33:54.478Z,4.87
2018-06-24T13:36:56.476Z,4.83
2018-06-24T13:39:58.635Z,4.73
2018-06-24T13:43:00.737Z,4.10
2018-06-24T13:46:02.887Z,4.20
2018-06-24T13:49:05.077Z,4.40
2018-06-24T13:52:07.225Z,4.00
2018-06-24T13:55:09.312Z,3.90
2018-06-24T13:58:11.366Z,4.03
2018-06-24T14:01:13.584Z,4.20
2018-06-24T14:04:15.702Z,4.17
2018-06-24T14:07:18.631Z,3.80
2018-06-24T14:10:20.608Z,3.70
2018-06-24T14:13:23.727Z,4.47
2018-06-24T14:16:26.809Z,3.90
2018-06-24T14:19:28.915Z,3.90
2018-06-24T14:22:30.976Z,3.27
2018-06-24T14:25:34.039Z,3.90
2018-06-24T14:28:36.095Z,3.90
2018-06-24T14:31:38.222Z,3.50
2018-06-24T14:34:40.261Z,3.80
2018-06-24T14:37:42.364Z,3.53
2018-06-24T14:40:44.427Z,3.67
2018-06-24T14:43:46.480Z,3.33
2018-06-24T14:46:48.627Z,3.67
2018-06-24T14:49:50.711Z,3.70
2018-06-24T14:52:54.800Z,3.43
2018-06-24T14:55:56.914Z,3.67
2018-06-24T14:58:58.934Z,3.87
2018-06-24T15:02:01.071Z,3.50
2018-06-24T15:05:13.369Z,3.37
2018-06-24T15:08:15.523Z,3.80
2018-06-24T15:11:17.683Z,3.60
2018-06-24T15:14:21.816Z,3.13
2018-06-24T15:17:23.891Z,3.30
2018-06-24T15:20:26.987Z,3.50
2018-06-24T15:23:29.181Z,3.37
2018-06-24T15:26:31.330Z,3.27
2018-06-24T15:29:33.388Z,3.17
2018-06-24T15:32:46.728Z,3.87
2018-06-24T15:35:48.782Z,4.47
2018-06-24T15:38:50.864Z,5.43
2018-06-24T15:41:53.069Z,4.40
2018-06-24T15:44:55.220Z,3.77
2018-06-24T15:47:57.276Z,3.23
2018-06-24T15:50:59.437Z,3.80
2018-06-24T15:54:01.500Z,3.20
2018-06-24T15:57:03.823Z,3.63
2018-06-24T16:00:05.789Z,3.33
2018-06-24T16:03:08.064Z,3.30
2018-06-24T16:06:10.079Z,3.13
2018-06-24T16:09:12.730Z,3.33
2018-06-24T16:12:14.756Z,3.60
2018-06-24T16:15:16.790Z,3.50
2018-06-24T16:18:18.987Z,3.07
2018-06-24T16:21:21.021Z,3.17
2018-06-24T16:24:24.164Z,2.73
2018-06-24T16:27:26.123Z,2.90
2018-06-24T16:30:28.182Z,2.80
2018-06-24T16:33:30.386Z,2.63
2018-06-24T16:36:32.487Z,2.67
2018-06-24T16:39:34.452Z,2.47
2018-06-24T16:42:37.472Z,2.80
2018-06-24T16:45:39.566Z,2.80
2018-06-24T16:48:41.618Z,2.40
2018-06-24T16:51:43.813Z,2.20
2018-06-24T16:54:45.935Z,2.20
2018-06-24T16:57:48.009Z,2.20
2018-06-24T17:00:51.319Z,2.67
2018-06-24T17:03:53.504Z,2.30
2018-06-24T17:06:55.438Z,2.50
2018-06-24T17:09:57.613Z,2.80
2018-06-24T17:12:59.733Z,2.10
2018-06-24T17:16:01.863Z,2.47
2018-06-24T17:19:09.782Z,2.90
2018-06-24T17:22:11.892Z,3.13
2018-06-24T17:25:14.120Z,2.77
2018-06-24T17:28:16.151Z,3.87
2018-06-24T17:31:18.240Z,4.47
2018-06-24T17:34:21.122Z,4.10
2018-06-24T17:37:23.172Z,4.43
2018-06-24T17:40:25.227Z,4.53
2018-06-24T17:43:27.315Z,4.33
2018-06-24T17:46:29.376Z,4.13
2018-06-24T17:49:31.450Z,4.33
2018-06-24T17:52:33.494Z,5.00
2018-06-24T17:55:35.551Z,4.90
2018-06-24T17:58:37.569Z,4.47
2018-06-24T18:01:39.745Z,5.20
2018-06-24T18:04:41.783Z,5.37
2018-06-24T18:07:43.771Z,5.23
2018-06-24T18:10:46.208Z,5.37
2018-06-24T18:13:49.607Z,5.77
2018-06-24T18:16:51.644Z,5.33
2018-06-24T18:19:53.929Z,5.57
2018-06-24T18:22:56.116Z,5.77
2018-06-24T18:25:58.213Z,5.57
2018-06-24T18:29:00.417Z,5.50
2018-06-24T18:32:02.658Z,5.33
2018-06-24T18:35:04.756Z,5.30
2018-06-24T18:38:07.145Z,4.83
2018-06-24T18:41:09.203Z,5.30
2018-06-24T18:44:11.263Z,5.10
2018-06-24T18:47:13.362Z,4.50
2018-06-24T18:50:15.419Z,4.50
2018-06-24T18:53:18.272Z,4.20
2018-06-24T18:56:20.447Z,4.20
2018-06-24T18:59:22.525Z,3.43
2018-06-24T19:02:24.813Z,3.47
2018-06-24T19:05:26.940Z,2.90
2018-06-24T19:08:30.005Z,3.00
2018-06-24T19:11:32.064Z,2.60
2018-06-24T19:14:34.188Z,2.57
2018-06-24T19:17:36.275Z,2.57
2018-06-24T19:20:38.427Z,2.50
2018-06-24T19:23:40.519Z,2.80
2018-06-24T19:26:42.986Z,2.90
2018-06-24T19:29:45.507Z,2.50
2018-06-24T19:32:47.577Z,2.50
2018-06-24T19:35:50.587Z,2.63
2018-06-24T19:38:53.090Z,2.40
2018-06-24T19:41:55.159Z,2.77
2018-06-24T19:44:57.194Z,2.50
2018-06-24T19:47:59.487Z,2.43
2018-06-24T19:51:02.596Z,2.40
2018-06-24T19:54:05.901Z,2.40
2018-06-24T19:57:07.993Z,2.97
2018-06-24T20:00:10.048Z,2.30
2018-06-24T20:03:12.111Z,2.33
2018-06-24T20:06:14.575Z,2.60
2018-06-24T20:09:17.173Z,2.63
2018-06-24T20:12:20.277Z,2.13
2018-06-24T20:15:22.758Z,2.33
2018-06-24T20:18:25.295Z,2.33
2018-06-24T20:21:27.301Z,2.70
2018-06-24T20:24:29.782Z,2.70
2018-06-24T20:27:31.849Z,2.57
2018-06-24T20:30:34.414Z,2.57
2018-06-24T20:33:36.795Z,2.70
2018-06-24T20:36:38.880Z,2.80
2018-06-24T20:39:41.431Z,2.93
2018-06-24T20:42:45.878Z,2.73
2018-06-24T20:45:47.968Z,2.80
2018-06-24T20:48:50.927Z,2.87
2018-06-24T20:51:53.000Z,2.60
2018-06-24T20:54:55.562Z,2.60
2018-06-24T20:57:57.539Z,2.70
2018-06-24T21:00:59.984Z,2.80
2018-06-24T21:04:02.076Z,3.00
2018-06-24T21:07:04.612Z,2.40
2018-06-24T21:10:06.724Z,2.53
2018-06-24T21:13:08.805Z,2.90
2018-06-24T21:16:11.295Z,3.13
2018-06-24T21:19:13.314Z,2.70
2018-06-24T21:22:15.409Z,2.67
2018-06-24T21:25:17.501Z,2.70
2018-06-24T21:28:19.655Z,2.50
2018-06-24T21:31:21.636Z,2.40
2018-06-24T21:34:23.784Z,2.77
2018-06-24T21:37:25.839Z,2.67
2018-06-24T21:40:27.923Z,3.40
2018-06-24T21:43:29.960Z,2.83
2018-06-24T21:46:31.975Z,2.87
2018-06-24T21:49:34.049Z,2.63
2018-06-24T21:52:36.044Z,2.60
2018-06-24T21:55:38.151Z,2.70
2018-06-24T21:58:40.244Z,2.83
2018-06-24T22:01:43.343Z,2.60
2018-06-24T22:04:45.381Z,2.50
2018-06-24T22:07:47.478Z,2.60
2018-06-24T22:10:49.546Z,2.13
2018-06-24T22:13:51.609Z,2.67
2018-06-24T22:16:53.795Z,2.43
2018-06-24T22:19:56.091Z,2.37
2018-06-24T22:22:58.164Z,2.07
2018-06-24T22:26:00.316Z,2.60
2018-06-24T22:29:02.363Z,2.43
2018-06-24T22:32:04.540Z,2.37
2018-06-24T22:35:06.579Z,2.40
2018-06-24T22:38:08.687Z,2.30
2018-06-24T22:41:10.799Z,2.37
2018-06-24T22:44:13.991Z,2.40
2018-06-24T22:47:16.049Z,2.73
2018-06-24T22:50:18.052Z,2.50
2018-06-24T22:53:20.132Z,2.27
2018-06-24T22:56:22.215Z,2.30
2018-06-24T23:00:34.324Z,2.20
2018-06-24T23:03:36.469Z,2.10
2018-06-24T23:06:38.573Z,2.30
2018-06-24T23:09:40.620Z,2.10
2018-06-24T23:12:43.706Z,2.03
2018-06-24T23:15:45.802Z,2.27
2018-06-24T23:18:47.863Z,2.10
2018-06-24T23:21:49.991Z,2.10
2018-06-24T23:24:52.367Z,2.27
2018-06-24T23:27:54.352Z,2.70
2018-06-24T23:30:56.511Z,2.20
2018-06-24T23:33:58.586Z,2.20
2018-06-24T23:37:00.659Z,2.53
2018-06-24T23:40:03.229Z,2.10
2018-06-24T23:43:05.660Z,2.10
2018-06-24T23:46:08.076Z,2.03
2018-06-24T23:49:10.128Z,1.90
2018-06-24T23:52:12.342Z,2.30
2018-06-24T23:55:14.527Z,2.30
2018-06-24T23:58:16.561Z,2.10
